sensor_id;sensor_type;location;lat;lon;timestamp;P1;durP1;ratioP1;P2;durP2;ratioP2
9178;SDS011;4624;48.126;11.546;2023-03-12T00:01:11;3.90;;;2.90;;
9178;SDS011;4624;48.126;11.546;2023-03-12T00:03:39;4.10;;;3.70;;
9178;SDS011;4624;48.126;11.546;2023-03-12T00:06:06;3.87;;;2.77;;
9178;SDS011;4624;48.126;11.546;2023-03-12T00:08:34;4.00;;;3.10;;
9178;SDS011;4624;48.126;11.546;2023-03-12T00:11:04;3.70;;;3.00;;
9178;SDS011;4624;48.126;11.546;2023-03-12T00:13:32;3.57;;;2.67;;
9178;SDS011;4624;48.126;11.546;2023-03-12T00:16:02;4.17;;;2.67;;
9178;SDS011;4624;48.126;11.546;2023-03-12T00:18:29;3.40;;;2.47;;
9178;SDS011;4624;48.126;11.546;2023-03-12T00:20:56;5.93;;;2.40;;
9178;SDS011;4624;48.126;11.546;2023-03-12T00:23:23;3.70;;;2.60;;
9178;SDS011;4624;48.126;11.546;2023-03-12T00:25:51;3.83;;;2.80;;
9178;SDS011;4624;48.126;11.546;2023-03-12T00:28:18;3.60;;;2.43;;
9178;SDS011;4624;48.126;11.546;2023-03-12T00:30:45;3.07;;;2.10;;
9178;SDS011;4624;48.126;11.546;2023-03-12T00:33:12;3.90;;;2.50;;
9178;SDS011;4624;48.126;11.546;2023-03-12T00:35:39;3.83;;;2.27;;
9178;SDS011;4624;48.126;11.546;2023-03-12T00:38:05;2.70;;;1.73;;
9178;SDS011;4624;48.126;11.546;2023-03-12T00:40:32;2.47;;;2.27;;
9178;SDS011;4624;48.126;11.546;2023-03-12T00:43:00;4.20;;;2.50;;
9178;SDS011;4624;48.126;11.546;2023-03-12T00:45:27;2.47;;;2.10;;
9178;SDS011;4624;48.126;11.546;2023-03-12T00:47:54;4.47;;;2.40;;
9178;SDS011;4624;48.126;11.546;2023-03-12T00:50:20;2.47;;;1.90;;
9178;SDS011;4624;48.126;11.546;2023-03-12T00:52:47;2.43;;;2.00;;
9178;SDS011;4624;48.126;11.546;2023-03-12T00:55:14;2.37;;;2.17;;
9178;SDS011;4624;48.126;11.546;2023-03-12T00:57:41;2.07;;;1.87;;
9178;SDS011;4624;48.126;11.546;2023-03-12T01:00:10;3.53;;;2.07;;
9178;SDS011;4624;48.126;11.546;2023-03-12T01:02:38;5.10;;;2.47;;
9178;SDS011;4624;48.126;11.546;2023-03-12T01:05:06;4.57;;;2.83;;
9178;SDS011;4624;48.126;11.546;2023-03-12T01:07:36;3.30;;;2.43;;
9178;SDS011;4624;48.126;11.546;2023-03-12T01:10:03;3.43;;;2.13;;
9178;SDS011;4624;48.126;11.546;2023-03-12T01:12:32;2.97;;;2.20;;
9178;SDS011;4624;48.126;11.546;2023-03-12T01:14:58;4.17;;;2.43;;
9178;SDS011;4624;48.126;11.546;2023-03-12T01:17:27;2.73;;;2.53;;
9178;SDS011;4624;48.126;11.546;2023-03-12T01:19:53;2.93;;;1.83;;
9178;SDS011;4624;48.126;11.546;2023-03-12T01:22:20;2.20;;;2.00;;
9178;SDS011;4624;48.126;11.546;2023-03-12T01:24:47;2.37;;;2.10;;
9178;SDS011;4624;48.126;11.546;2023-03-12T01:27:14;4.33;;;2.20;;
9178;SDS011;4624;48.126;11.546;2023-03-12T01:29:40;3.30;;;2.07;;
9178;SDS011;4624;48.126;11.546;2023-03-12T01:32:07;1.97;;;1.70;;
9178;SDS011;4624;48.126;11.546;2023-03-12T01:34:35;2.87;;;2.03;;
9178;SDS011;4624;48.126;11.546;2023-03-12T01:37:02;3.00;;;2.10;;
9178;SDS011;4624;48.126;11.546;2023-03-12T01:39:29;2.33;;;2.03;;
9178;SDS011;4624;48.126;11.546;2023-03-12T01:41:55;1.83;;;1.70;;
9178;SDS011;4624;48.126;11.546;2023-03-12T01:44:22;3.17;;;1.80;;
9178;SDS011;4624;48.126;11.546;2023-03-12T01:46:49;3.70;;;2.00;;
9178;SDS011;4624;48.126;11.546;2023-03-12T01:49:16;2.83;;;1.93;;
9178;SDS011;4624;48.126;11.546;2023-03-12T01:51:48;2.50;;;1.57;;
9178;SDS011;4624;48.126;11.546;2023-03-12T01:54:21;3.20;;;2.10;;
9178;SDS011;4624;48.126;11.546;2023-03-12T01:56:51;1.93;;;1.73;;
9178;SDS011;4624;48.126;11.546;2023-03-12T01:59:20;2.50;;;1.73;;
9178;SDS011;4624;48.126;11.546;2023-03-12T02:01:49;1.97;;;1.70;;
9178;SDS011;4624;48.126;11.546;2023-03-12T02:04:17;2.17;;;1.87;;
9178;SDS011;4624;48.126;11.546;2023-03-12T02:06:49;1.83;;;1.50;;
9178;SDS011;4624;48.126;11.546;2023-03-12T02:09:19;1.97;;;1.57;;
9178;SDS011;4624;48.126;11.546;2023-03-12T02:11:47;1.60;;;1.50;;
9178;SDS011;4624;48.126;11.546;2023-03-12T02:14:14;3.47;;;1.80;;
9178;SDS011;4624;48.126;11.546;2023-03-12T02:16:41;1.90;;;1.50;;
9178;SDS011;4624;48.126;11.546;2023-03-12T02:19:19;2.40;;;1.97;;
9178;SDS011;4624;48.126;11.546;2023-03-12T02:21:53;3.23;;;1.60;;
9178;SDS011;4624;48.126;11.546;2023-03-12T02:24:23;2.90;;;2.00;;
9178;SDS011;4624;48.126;11.546;2023-03-12T02:26:56;3.17;;;2.03;;
9178;SDS011;4624;48.126;11.546;2023-03-12T02:29:24;1.40;;;1.30;;
9178;SDS011;4624;48.126;11.546;2023-03-12T02:31:53;2.00;;;1.80;;
9178;SDS011;4624;48.126;11.546;2023-03-12T02:34:22;2.60;;;1.63;;
9178;SDS011;4624;48.126;11.546;2023-03-12T02:36:49;3.13;;;1.80;;
9178;SDS011;4624;48.126;11.546;2023-03-12T02:39:16;2.80;;;1.77;;
9178;SDS011;4624;48.126;11.546;2023-03-12T02:41:43;2.53;;;1.80;;
9178;SDS011;4624;48.126;11.546;2023-03-12T02:44:15;2.50;;;1.70;;
9178;SDS011;4624;48.126;11.546;2023-03-12T02:46:45;2.50;;;1.70;;
9178;SDS011;4624;48.126;11.546;2023-03-12T02:49:13;1.73;;;1.50;;
9178;SDS011;4624;48.126;11.546;2023-03-12T02:51:42;2.70;;;1.80;;
9178;SDS011;4624;48.126;11.546;2023-03-12T02:54:10;2.57;;;1.80;;
9178;SDS011;4624;48.126;11.546;2023-03-12T02:56:38;2.57;;;1.50;;
9178;SDS011;4624;48.126;11.546;2023-03-12T02:59:05;1.80;;;1.53;;
9178;SDS011;4624;48.126;11.546;2023-03-12T03:01:35;4.07;;;1.80;;
9178;SDS011;4624;48.126;11.546;2023-03-12T03:04:03;2.13;;;1.60;;
9178;SDS011;4624;48.126;11.546;2023-03-12T03:06:31;2.37;;;1.60;;
9178;SDS011;4624;48.126;11.546;2023-03-12T03:08:58;1.70;;;1.60;;
9178;SDS011;4624;48.126;11.546;2023-03-12T03:11:25;2.23;;;1.73;;
9178;SDS011;4624;48.126;11.546;2023-03-12T03:13:52;2.13;;;1.70;;
9178;SDS011;4624;48.126;11.546;2023-03-12T03:16:20;3.27;;;1.77;;
9178;SDS011;4624;48.126;11.546;2023-03-12T03:18:49;4.27;;;2.17;;
9178;SDS011;4624;48.126;11.546;2023-03-12T03:21:16;2.63;;;2.43;;
9178;SDS011;4624;48.126;11.546;2023-03-12T03:23:43;4.20;;;2.50;;
9178;SDS011;4624;48.126;11.546;2023-03-12T03:26:10;5.17;;;2.70;;
9178;SDS011;4624;48.126;11.546;2023-03-12T03:28:37;3.43;;;2.20;;
9178;SDS011;4624;48.126;11.546;2023-03-12T03:31:04;3.40;;;2.93;;
9178;SDS011;4624;48.126;11.546;2023-03-12T03:33:32;3.90;;;2.53;;
9178;SDS011;4624;48.126;11.546;2023-03-12T03:36:01;2.50;;;2.30;;
9178;SDS011;4624;48.126;11.546;2023-03-12T03:38:29;2.57;;;2.37;;
9178;SDS011;4624;48.126;11.546;2023-03-12T03:40:56;3.43;;;2.60;;
9178;SDS011;4624;48.126;11.546;2023-03-12T03:43:23;3.40;;;3.10;;
9178;SDS011;4624;48.126;11.546;2023-03-12T03:45:55;3.37;;;2.90;;
9178;SDS011;4624;48.126;11.546;2023-03-12T03:48:22;4.47;;;2.87;;
9178;SDS011;4624;48.126;11.546;2023-03-12T03:50:49;2.83;;;2.53;;
9178;SDS011;4624;48.126;11.546;2023-03-12T03:53:17;3.50;;;2.57;;
9178;SDS011;4624;48.126;11.546;2023-03-12T03:55:44;3.83;;;2.97;;
9178;SDS011;4624;48.126;11.546;2023-03-12T03:58:11;3.20;;;2.77;;
9178;SDS011;4624;48.126;11.546;2023-03-12T04:00:39;4.27;;;3.00;;
9178;SDS011;4624;48.126;11.546;2023-03-12T04:03:05;2.73;;;2.50;;
9178;SDS011;4624;48.126;11.546;2023-03-12T04:05:32;2.37;;;2.17;;
9178;SDS011;4624;48.126;11.546;2023-03-12T04:07:59;3.13;;;2.73;;
9178;SDS011;4624;48.126;11.546;2023-03-12T04:10:29;4.63;;;2.97;;
9178;SDS011;4624;48.126;11.546;2023-03-12T04:12:55;3.10;;;2.53;;
9178;SDS011;4624;48.126;11.546;2023-03-12T04:15:23;3.60;;;3.30;;
9178;SDS011;4624;48.126;11.546;2023-03-12T04:17:49;3.90;;;2.90;;
9178;SDS011;4624;48.126;11.546;2023-03-12T04:20:16;4.70;;;3.37;;
9178;SDS011;4624;48.126;11.546;2023-03-12T04:22:43;4.03;;;3.07;;
9178;SDS011;4624;48.126;11.546;2023-03-12T04:25:10;3.83;;;2.93;;
9178;SDS011;4624;48.126;11.546;2023-03-12T04:27:38;3.97;;;3.10;;
9178;SDS011;4624;48.126;11.546;2023-03-12T04:30:05;4.00;;;3.37;;
9178;SDS011;4624;48.126;11.546;2023-03-12T04:32:32;4.27;;;2.90;;
9178;SDS011;4624;48.126;11.546;2023-03-12T04:34:59;3.70;;;3.23;;
9178;SDS011;4624;48.126;11.546;2023-03-12T04:37:26;4.63;;;3.83;;
9178;SDS011;4624;48.126;11.546;2023-03-12T04:39:53;4.10;;;3.30;;
9178;SDS011;4624;48.126;11.546;2023-03-12T04:42:19;4.97;;;3.40;;
9178;SDS011;4624;48.126;11.546;2023-03-12T04:44:47;3.63;;;3.33;;
9178;SDS011;4624;48.126;11.546;2023-03-12T04:47:16;4.67;;;3.30;;
9178;SDS011;4624;48.126;11.546;2023-03-12T04:49:43;4.57;;;3.50;;
9178;SDS011;4624;48.126;11.546;2023-03-12T04:52:10;3.60;;;3.30;;
9178;SDS011;4624;48.126;11.546;2023-03-12T04:54:36;3.60;;;3.30;;
9178;SDS011;4624;48.126;11.546;2023-03-12T04:57:03;4.17;;;3.57;;
9178;SDS011;4624;48.126;11.546;2023-03-12T04:59:30;3.93;;;3.53;;
9178;SDS011;4624;48.126;11.546;2023-03-12T05:01:58;3.73;;;3.43;;
9178;SDS011;4624;48.126;11.546;2023-03-12T05:04:25;3.83;;;3.30;;
9178;SDS011;4624;48.126;11.546;2023-03-12T05:06:51;3.40;;;3.10;;
9178;SDS011;4624;48.126;11.546;2023-03-12T05:09:18;4.00;;;3.57;;
9178;SDS011;4624;48.126;11.546;2023-03-12T05:11:45;4.33;;;3.67;;
9178;SDS011;4624;48.126;11.546;2023-03-12T05:14:12;4.93;;;3.63;;
9178;SDS011;4624;48.126;11.546;2023-03-12T05:16:39;5.33;;;3.00;;
9178;SDS011;4624;48.126;11.546;2023-03-12T05:19:07;4.27;;;3.67;;
9178;SDS011;4624;48.126;11.546;2023-03-12T05:21:34;3.80;;;3.50;;
9178;SDS011;4624;48.126;11.546;2023-03-12T05:24:01;4.53;;;4.00;;
9178;SDS011;4624;48.126;11.546;2023-03-12T05:26:28;4.13;;;3.73;;
9178;SDS011;4624;48.126;11.546;2023-03-12T05:28:57;4.20;;;3.77;;
9178;SDS011;4624;48.126;11.546;2023-03-12T05:31:25;5.40;;;4.00;;
9178;SDS011;4624;48.126;11.546;2023-03-12T05:33:52;5.10;;;3.20;;
9178;SDS011;4624;48.126;11.546;2023-03-12T05:36:20;3.47;;;3.17;;
9178;SDS011;4624;48.126;11.546;2023-03-12T05:38:47;3.70;;;3.27;;
9178;SDS011;4624;48.126;11.546;2023-03-12T05:41:17;4.67;;;3.13;;
9178;SDS011;4624;48.126;11.546;2023-03-12T05:43:45;2.93;;;2.63;;
9178;SDS011;4624;48.126;11.546;2023-03-12T05:46:12;3.03;;;2.67;;
9178;SDS011;4624;48.126;11.546;2023-03-12T05:48:38;4.20;;;3.10;;
9178;SDS011;4624;48.126;11.546;2023-03-12T05:51:05;3.87;;;3.03;;
9178;SDS011;4624;48.126;11.546;2023-03-12T05:53:33;3.17;;;2.80;;
9178;SDS011;4624;48.126;11.546;2023-03-12T05:56:01;4.43;;;2.37;;
9178;SDS011;4624;48.126;11.546;2023-03-12T05:58:29;3.40;;;3.10;;
9178;SDS011;4624;48.126;11.546;2023-03-12T06:00:56;3.27;;;2.97;;
9178;SDS011;4624;48.126;11.546;2023-03-12T06:03:23;4.57;;;2.27;;
9178;SDS011;4624;48.126;11.546;2023-03-12T06:05:49;3.33;;;2.70;;
9178;SDS011;4624;48.126;11.546;2023-03-12T06:08:19;4.03;;;2.77;;
9178;SDS011;4624;48.126;11.546;2023-03-12T06:10:48;3.80;;;2.90;;
9178;SDS011;4624;48.126;11.546;2023-03-12T06:13:16;3.70;;;2.87;;
9178;SDS011;4624;48.126;11.546;2023-03-12T06:15:42;3.10;;;2.50;;
9178;SDS011;4624;48.126;11.546;2023-03-12T06:18:09;3.37;;;2.60;;
9178;SDS011;4624;48.126;11.546;2023-03-12T06:20:36;3.23;;;2.77;;
9178;SDS011;4624;48.126;11.546;2023-03-12T06:23:03;2.90;;;2.70;;
9178;SDS011;4624;48.126;11.546;2023-03-12T06:25:29;2.40;;;2.20;;
9178;SDS011;4624;48.126;11.546;2023-03-12T06:27:58;2.50;;;2.30;;
9178;SDS011;4624;48.126;11.546;2023-03-12T06:30:24;2.60;;;2.40;;
9178;SDS011;4624;48.126;11.546;2023-03-12T06:32:51;2.83;;;2.40;;
9178;SDS011;4624;48.126;11.546;2023-03-12T06:35:19;2.37;;;2.00;;
9178;SDS011;4624;48.126;11.546;2023-03-12T06:37:45;5.90;;;2.40;;
9178;SDS011;4624;48.126;11.546;2023-03-12T06:40:12;2.30;;;2.10;;
9178;SDS011;4624;48.126;11.546;2023-03-12T06:42:39;2.73;;;1.70;;
9178;SDS011;4624;48.126;11.546;2023-03-12T06:45:08;1.97;;;1.77;;
9178;SDS011;4624;48.126;11.546;2023-03-12T06:47:35;2.23;;;2.03;;
9178;SDS011;4624;48.126;11.546;2023-03-12T06:50:02;1.70;;;1.60;;
9178;SDS011;4624;48.126;11.546;2023-03-12T06:52:29;1.73;;;1.63;;
9178;SDS011;4624;48.126;11.546;2023-03-12T06:54:55;1.80;;;1.70;;
9178;SDS011;4624;48.126;11.546;2023-03-12T06:57:22;1.80;;;1.70;;
9178;SDS011;4624;48.126;11.546;2023-03-12T06:59:49;1.90;;;1.50;;
9178;SDS011;4624;48.126;11.546;2023-03-12T07:02:17;1.57;;;1.47;;
9178;SDS011;4624;48.126;11.546;2023-03-12T07:04:44;1.67;;;1.43;;
9178;SDS011;4624;48.126;11.546;2023-03-12T07:07:11;2.23;;;1.60;;
9178;SDS011;4624;48.126;11.546;2023-03-12T07:09:37;2.23;;;1.57;;
9178;SDS011;4624;48.126;11.546;2023-03-12T07:12:04;1.40;;;1.30;;
9178;SDS011;4624;48.126;11.546;2023-03-12T07:14:31;2.40;;;1.47;;
9178;SDS011;4624;48.126;11.546;2023-03-12T07:16:58;1.87;;;1.43;;
9178;SDS011;4624;48.126;11.546;2023-03-12T07:19:27;1.47;;;1.17;;
9178;SDS011;4624;48.126;11.546;2023-03-12T07:21:55;1.80;;;1.13;;
9178;SDS011;4624;48.126;11.546;2023-03-12T07:24:22;0.93;;;0.93;;
9178;SDS011;4624;48.126;11.546;2023-03-12T07:26:48;2.03;;;1.37;;
9178;SDS011;4624;48.126;11.546;2023-03-12T07:29:15;1.10;;;1.00;;
9178;SDS011;4624;48.126;11.546;2023-03-12T07:31:42;1.37;;;1.27;;
9178;SDS011;4624;48.126;11.546;2023-03-12T07:34:09;0.83;;;0.83;;
9178;SDS011;4624;48.126;11.546;2023-03-12T07:36:37;2.00;;;1.17;;
9178;SDS011;4624;48.126;11.546;2023-03-12T07:39:04;1.23;;;1.13;;
9178;SDS011;4624;48.126;11.546;2023-03-12T07:41:30;1.00;;;0.90;;
9178;SDS011;4624;48.126;11.546;2023-03-12T07:43:57;1.33;;;1.00;;
9178;SDS011;4624;48.126;11.546;2023-03-12T07:46:24;6.20;;;1.20;;
9178;SDS011;4624;48.126;11.546;2023-03-12T07:48:50;1.00;;;0.90;;
9178;SDS011;4624;48.126;11.546;2023-03-12T07:51:17;1.47;;;1.37;;
9178;SDS011;4624;48.126;11.546;2023-03-12T07:53:45;1.70;;;1.00;;
9178;SDS011;4624;48.126;11.546;2023-03-12T07:56:12;1.63;;;1.00;;
9178;SDS011;4624;48.126;11.546;2023-03-12T07:58:39;1.30;;;1.20;;
9178;SDS011;4624;48.126;11.546;2023-03-12T08:01:05;1.77;;;1.30;;
9178;SDS011;4624;48.126;11.546;2023-03-12T08:03:32;1.47;;;1.00;;
9178;SDS011;4624;48.126;11.546;2023-03-12T08:06:00;1.17;;;1.07;;
9178;SDS011;4624;48.126;11.546;2023-03-12T08:08:28;1.63;;;0.97;;
9178;SDS011;4624;48.126;11.546;2023-03-12T08:10:57;1.03;;;0.83;;
9178;SDS011;4624;48.126;11.546;2023-03-12T08:13:24;1.97;;;1.03;;
9178;SDS011;4624;48.126;11.546;2023-03-12T08:15:51;1.57;;;1.00;;
9178;SDS011;4624;48.126;11.546;2023-03-12T08:18:19;3.30;;;0.90;;
9178;SDS011;4624;48.126;11.546;2023-03-12T08:20:48;1.10;;;1.00;;
9178;SDS011;4624;48.126;11.546;2023-03-12T08:23:15;2.73;;;1.17;;
9178;SDS011;4624;48.126;11.546;2023-03-12T08:25:43;1.70;;;1.30;;
9178;SDS011;4624;48.126;11.546;2023-03-12T08:28:12;2.70;;;1.20;;
9178;SDS011;4624;48.126;11.546;2023-03-12T08:30:38;2.03;;;1.20;;
9178;SDS011;4624;48.126;11.546;2023-03-12T08:33:10;2.60;;;1.43;;
9178;SDS011;4624;48.126;11.546;2023-03-12T08:35:37;2.70;;;1.00;;
9178;SDS011;4624;48.126;11.546;2023-03-12T08:38:03;1.43;;;1.10;;
9178;SDS011;4624;48.126;11.546;2023-03-12T08:40:30;1.43;;;1.33;;
9178;SDS011;4624;48.126;11.546;2023-03-12T08:42:57;1.03;;;0.93;;
9178;SDS011;4624;48.126;11.546;2023-03-12T08:45:25;1.37;;;1.27;;
9178;SDS011;4624;48.126;11.546;2023-03-12T08:47:52;1.20;;;1.10;;
9178;SDS011;4624;48.126;11.546;2023-03-12T08:50:19;2.03;;;1.03;;
9178;SDS011;4624;48.126;11.546;2023-03-12T08:52:47;2.10;;;1.30;;
9178;SDS011;4624;48.126;11.546;2023-03-12T08:55:14;1.53;;;0.93;;
9178;SDS011;4624;48.126;11.546;2023-03-12T08:57:41;1.90;;;1.17;;
9178;SDS011;4624;48.126;11.546;2023-03-12T09:00:08;1.60;;;1.37;;
9178;SDS011;4624;48.126;11.546;2023-03-12T09:02:41;1.20;;;1.10;;
9178;SDS011;4624;48.126;11.546;2023-03-12T09:05:09;1.13;;;1.03;;
9178;SDS011;4624;48.126;11.546;2023-03-12T09:07:36;1.60;;;1.47;;
9178;SDS011;4624;48.126;11.546;2023-03-12T09:10:04;1.47;;;1.30;;
9178;SDS011;4624;48.126;11.546;2023-03-12T09:12:31;3.27;;;1.70;;
9178;SDS011;4624;48.126;11.546;2023-03-12T09:14:58;1.30;;;1.17;;
9178;SDS011;4624;48.126;11.546;2023-03-12T09:17:25;1.87;;;1.50;;
9178;SDS011;4624;48.126;11.546;2023-03-12T09:19:55;1.60;;;1.10;;
9178;SDS011;4624;48.126;11.546;2023-03-12T09:22:22;2.23;;;1.10;;
9178;SDS011;4624;48.126;11.546;2023-03-12T09:24:48;1.30;;;1.20;;
9178;SDS011;4624;48.126;11.546;2023-03-12T09:27:15;1.40;;;1.27;;
9178;SDS011;4624;48.126;11.546;2023-03-12T09:29:42;1.70;;;1.40;;
9178;SDS011;4624;48.126;11.546;2023-03-12T09:32:09;0.90;;;0.90;;
9178;SDS011;4624;48.126;11.546;2023-03-12T09:34:38;1.50;;;1.10;;
9178;SDS011;4624;48.126;11.546;2023-03-12T09:37:06;1.20;;;1.10;;
9178;SDS011;4624;48.126;11.546;2023-03-12T09:39:33;1.30;;;1.20;;
9178;SDS011;4624;48.126;11.546;2023-03-12T09:42:00;1.30;;;1.20;;
9178;SDS011;4624;48.126;11.546;2023-03-12T09:44:29;1.33;;;1.23;;
9178;SDS011;4624;48.126;11.546;2023-03-12T09:47:02;1.97;;;1.10;;
9178;SDS011;4624;48.126;11.546;2023-03-12T09:49:34;1.20;;;1.00;;
9178;SDS011;4624;48.126;11.546;2023-03-12T09:52:10;1.00;;;0.90;;
9178;SDS011;4624;48.126;11.546;2023-03-12T09:54:46;0.80;;;0.80;;
9178;SDS011;4624;48.126;11.546;2023-03-12T09:57:20;1.20;;;1.10;;
9178;SDS011;4624;48.126;11.546;2023-03-12T09:59:49;0.90;;;0.90;;
9178;SDS011;4624;48.126;11.546;2023-03-12T10:02:25;1.50;;;1.37;;
9178;SDS011;4624;48.126;11.546;2023-03-12T10:05:06;1.17;;;1.10;;
9178;SDS011;4624;48.126;11.546;2023-03-12T10:07:40;1.53;;;1.10;;
9178;SDS011;4624;48.126;11.546;2023-03-12T10:10:15;0.87;;;0.73;;
9178;SDS011;4624;48.126;11.546;2023-03-12T10:12:58;1.40;;;1.30;;
9178;SDS011;4624;48.126;11.546;2023-03-12T10:15:38;0.80;;;0.80;;
9178;SDS011;4624;48.126;11.546;2023-03-12T10:18:16;1.10;;;1.00;;
9178;SDS011;4624;48.126;11.546;2023-03-12T10:20:52;2.07;;;1.30;;
9178;SDS011;4624;48.126;11.546;2023-03-12T10:23:40;0.80;;;0.80;;
9178;SDS011;4624;48.126;11.546;2023-03-12T10:26:15;0.60;;;0.60;;
9178;SDS011;4624;48.126;11.546;2023-03-12T10:28:47;0.80;;;0.80;;
9178;SDS011;4624;48.126;11.546;2023-03-12T10:31:17;1.33;;;0.60;;
9178;SDS011;4624;48.126;11.546;2023-03-12T10:33:49;0.63;;;0.63;;
9178;SDS011;4624;48.126;11.546;2023-03-12T10:36:18;0.90;;;0.60;;
9178;SDS011;4624;48.126;11.546;2023-03-12T10:38:49;0.70;;;0.60;;
9178;SDS011;4624;48.126;11.546;2023-03-12T10:41:17;0.80;;;0.80;;
9178;SDS011;4624;48.126;11.546;2023-03-12T10:43:47;0.57;;;0.57;;
9178;SDS011;4624;48.126;11.546;2023-03-12T10:46:28;0.67;;;0.60;;
9178;SDS011;4624;48.126;11.546;2023-03-12T10:51:55;1.10;;;0.70;;
9178;SDS011;4624;48.126;11.546;2023-03-12T10:54:27;1.23;;;0.90;;
9178;SDS011;4624;48.126;11.546;2023-03-12T10:56:57;0.73;;;0.70;;
9178;SDS011;4624;48.126;11.546;2023-03-12T10:59:26;0.60;;;0.60;;
9178;SDS011;4624;48.126;11.546;2023-03-12T11:01:54;0.93;;;0.50;;
9178;SDS011;4624;48.126;11.546;2023-03-12T11:04:22;0.73;;;0.60;;
9178;SDS011;4624;48.126;11.546;2023-03-12T11:07:13;0.80;;;0.73;;
9178;SDS011;4624;48.126;11.546;2023-03-12T11:09:45;1.23;;;0.70;;
9178;SDS011;4624;48.126;11.546;2023-03-12T11:12:28;1.47;;;1.10;;
9178;SDS011;4624;48.126;11.546;2023-03-12T11:14:56;0.70;;;0.70;;
9178;SDS011;4624;48.126;11.546;2023-03-12T11:17:23;0.80;;;0.67;;
9178;SDS011;4624;48.126;11.546;2023-03-12T11:19:51;1.27;;;1.17;;
9178;SDS011;4624;48.126;11.546;2023-03-12T11:22:29;0.60;;;0.60;;
9178;SDS011;4624;48.126;11.546;2023-03-12T11:24:58;1.97;;;0.70;;
9178;SDS011;4624;48.126;11.546;2023-03-12T11:27:29;0.53;;;0.53;;
9178;SDS011;4624;48.126;11.546;2023-03-12T11:30:03;0.90;;;0.70;;
9178;SDS011;4624;48.126;11.546;2023-03-12T11:32:32;0.67;;;0.50;;
9178;SDS011;4624;48.126;11.546;2023-03-12T11:35:02;0.60;;;0.60;;
9178;SDS011;4624;48.126;11.546;2023-03-12T11:37:36;0.60;;;0.60;;
9178;SDS011;4624;48.126;11.546;2023-03-12T11:40:20;0.53;;;0.53;;
9178;SDS011;4624;48.126;11.546;2023-03-12T11:45:53;0.57;;;0.57;;
9178;SDS011;4624;48.126;11.546;2023-03-12T11:48:37;0.60;;;0.60;;
9178;SDS011;4624;48.126;11.546;2023-03-12T11:51:12;0.60;;;0.60;;
9178;SDS011;4624;48.126;11.546;2023-03-12T11:54:03;0.70;;;0.53;;
9178;SDS011;4624;48.126;11.546;2023-03-12T11:56:46;0.73;;;0.73;;
9178;SDS011;4624;48.126;11.546;2023-03-12T11:59:32;1.40;;;0.80;;
9178;SDS011;4624;48.126;11.546;2023-03-12T12:02:13;1.03;;;0.90;;
9178;SDS011;4624;48.126;11.546;2023-03-12T12:04:55;0.80;;;0.80;;
9178;SDS011;4624;48.126;11.546;2023-03-12T12:07:46;1.03;;;0.80;;
9178;SDS011;4624;48.126;11.546;2023-03-12T12:10:23;1.10;;;0.80;;
9178;SDS011;4624;48.126;11.546;2023-03-12T12:12:58;1.07;;;0.97;;
9178;SDS011;4624;48.126;11.546;2023-03-12T12:15:33;1.30;;;1.20;;
9178;SDS011;4624;48.126;11.546;2023-03-12T12:18:08;1.50;;;1.30;;
9178;SDS011;4624;48.126;11.546;2023-03-12T12:20:50;1.17;;;1.03;;
9178;SDS011;4624;48.126;11.546;2023-03-12T12:23:27;1.00;;;0.90;;
9178;SDS011;4624;48.126;11.546;2023-03-12T12:26:08;2.17;;;1.30;;
9178;SDS011;4624;48.126;11.546;2023-03-12T12:31:36;4.53;;;1.20;;
9178;SDS011;4624;48.126;11.546;2023-03-12T12:37:17;1.30;;;1.20;;
9178;SDS011;4624;48.126;11.546;2023-03-12T12:39:53;3.23;;;1.23;;
9178;SDS011;4624;48.126;11.546;2023-03-12T12:42:29;1.07;;;1.03;;
9178;SDS011;4624;48.126;11.546;2023-03-12T12:45:00;4.07;;;1.20;;
9178;SDS011;4624;48.126;11.546;2023-03-12T12:47:33;2.17;;;1.50;;
9178;SDS011;4624;48.126;11.546;2023-03-12T12:50:11;1.23;;;1.13;;
9178;SDS011;4624;48.126;11.546;2023-03-12T12:52:42;1.40;;;1.23;;
9178;SDS011;4624;48.126;11.546;2023-03-12T12:55:10;2.80;;;1.57;;
9178;SDS011;4624;48.126;11.546;2023-03-12T12:57:44;2.00;;;1.30;;
9178;SDS011;4624;48.126;11.546;2023-03-12T13:00:35;2.83;;;1.60;;
9178;SDS011;4624;48.126;11.546;2023-03-12T13:03:11;2.80;;;1.30;;
9178;SDS011;4624;48.126;11.546;2023-03-12T13:05:44;3.17;;;1.30;;
9178;SDS011;4624;48.126;11.546;2023-03-12T13:08:33;3.13;;;1.20;;
9178;SDS011;4624;48.126;11.546;2023-03-12T13:11:22;1.47;;;1.37;;
9178;SDS011;4624;48.126;11.546;2023-03-12T13:14:10;1.20;;;1.10;;
9178;SDS011;4624;48.126;11.546;2023-03-12T13:16:46;1.67;;;1.13;;
9178;SDS011;4624;48.126;11.546;2023-03-12T13:19:20;1.90;;;1.40;;
9178;SDS011;4624;48.126;11.546;2023-03-12T13:21:58;1.47;;;1.37;;
9178;SDS011;4624;48.126;11.546;2023-03-12T13:24:34;1.77;;;1.50;;
9178;SDS011;4624;48.126;11.546;2023-03-12T13:27:14;1.47;;;1.37;;
9178;SDS011;4624;48.126;11.546;2023-03-12T13:29:43;1.27;;;1.17;;
9178;SDS011;4624;48.126;11.546;2023-03-12T13:35:31;1.83;;;1.30;;
9178;SDS011;4624;48.126;11.546;2023-03-12T13:38:04;2.07;;;1.10;;
9178;SDS011;4624;48.126;11.546;2023-03-12T13:46:35;4.00;;;1.80;;
9178;SDS011;4624;48.126;11.546;2023-03-12T13:49:10;1.50;;;1.40;;
9178;SDS011;4624;48.126;11.546;2023-03-12T13:51:44;1.40;;;1.30;;
9178;SDS011;4624;48.126;11.546;2023-03-12T13:54:18;1.80;;;1.70;;
9178;SDS011;4624;48.126;11.546;2023-03-12T13:56:53;1.30;;;1.07;;
9178;SDS011;4624;48.126;11.546;2023-03-12T13:59:24;1.67;;;1.20;;
9178;SDS011;4624;48.126;11.546;2023-03-12T14:01:53;2.87;;;1.40;;
9178;SDS011;4624;48.126;11.546;2023-03-12T14:04:28;1.33;;;1.23;;
9178;SDS011;4624;48.126;11.546;2023-03-12T14:07:04;1.87;;;1.43;;
9178;SDS011;4624;48.126;11.546;2023-03-12T14:09:44;1.30;;;1.00;;
9178;SDS011;4624;48.126;11.546;2023-03-12T14:12:21;1.63;;;1.40;;
9178;SDS011;4624;48.126;11.546;2023-03-12T14:14:59;1.60;;;1.20;;
9178;SDS011;4624;48.126;11.546;2023-03-12T14:17:36;1.90;;;1.50;;
9178;SDS011;4624;48.126;11.546;2023-03-12T14:20:09;1.53;;;1.20;;
9178;SDS011;4624;48.126;11.546;2023-03-12T14:22:40;2.23;;;1.27;;
9178;SDS011;4624;48.126;11.546;2023-03-12T14:25:11;3.13;;;1.23;;
9178;SDS011;4624;48.126;11.546;2023-03-12T14:27:40;2.27;;;1.10;;
9178;SDS011;4624;48.126;11.546;2023-03-12T14:30:11;1.50;;;1.30;;
9178;SDS011;4624;48.126;11.546;2023-03-12T14:32:46;3.57;;;1.20;;
9178;SDS011;4624;48.126;11.546;2023-03-12T14:35:18;1.87;;;0.97;;
9178;SDS011;4624;48.126;11.546;2023-03-12T14:37:48;1.70;;;1.20;;
9178;SDS011;4624;48.126;11.546;2023-03-12T14:40:21;2.50;;;0.80;;
9178;SDS011;4624;48.126;11.546;2023-03-12T14:42:51;2.33;;;0.77;;
9178;SDS011;4624;48.126;11.546;2023-03-12T14:45:20;4.03;;;1.00;;
9178;SDS011;4624;48.126;11.546;2023-03-12T14:47:51;0.83;;;0.70;;
9178;SDS011;4624;48.126;11.546;2023-03-12T14:50:21;1.00;;;0.80;;
9178;SDS011;4624;48.126;11.546;2023-03-12T14:52:50;2.43;;;0.53;;
9178;SDS011;4624;48.126;11.546;2023-03-12T14:55:18;1.47;;;0.70;;
9178;SDS011;4624;48.126;11.546;2023-03-12T14:57:46;1.47;;;0.83;;
9178;SDS011;4624;48.126;11.546;2023-03-12T15:00:21;1.07;;;0.67;;
9178;SDS011;4624;48.126;11.546;2023-03-12T15:02:50;1.53;;;0.90;;
9178;SDS011;4624;48.126;11.546;2023-03-12T15:05:19;1.17;;;0.30;;
9178;SDS011;4624;48.126;11.546;2023-03-12T15:07:49;0.60;;;0.60;;
9178;SDS011;4624;48.126;11.546;2023-03-12T15:10:21;1.40;;;0.60;;
9178;SDS011;4624;48.126;11.546;2023-03-12T15:12:50;1.57;;;0.70;;
9178;SDS011;4624;48.126;11.546;2023-03-12T15:15:24;3.23;;;0.70;;
9178;SDS011;4624;48.126;11.546;2023-03-12T15:17:56;1.33;;;0.40;;
9178;SDS011;4624;48.126;11.546;2023-03-12T15:20:25;1.00;;;0.60;;
9178;SDS011;4624;48.126;11.546;2023-03-12T15:22:53;1.37;;;0.50;;
9178;SDS011;4624;48.126;11.546;2023-03-12T15:25:20;1.40;;;0.50;;
9178;SDS011;4624;48.126;11.546;2023-03-12T15:27:58;3.00;;;0.60;;
9178;SDS011;4624;48.126;11.546;2023-03-12T15:30:27;0.37;;;0.23;;
9178;SDS011;4624;48.126;11.546;2023-03-12T15:33:04;1.57;;;0.50;;
9178;SDS011;4624;48.126;11.546;2023-03-12T15:35:34;1.53;;;0.30;;
9178;SDS011;4624;48.126;11.546;2023-03-12T15:38:01;0.50;;;0.30;;